Time;durP1;ratioP1;P1;durP2;ratioP2;P2;SDS_P1;SDS_P2;PMS_P1;PMS_P2;Temp;Humidity;BMP_temperature;BMP_pressure;BME280_temperature;BME280_humidity;BME280_pressure;Samples;Min_cycle;Max_cycle;Signal;HPM_P1;HPM_P2
2022/06/19 00:02:28;;;;;;;0.00;0.00;;;17.00;99.90;;;;;;4959968;28;20480;-76
2022/06/19 00:04:57;;;;;;;0.00;0.00;;;17.00;99.90;;;;;;4960521;28;20447;-77
2022/06/19 00:07:25;;;;;;;0.00;0.00;;;16.90;99.90;;;;;;4960537;28;20483;-78
2022/06/19 00:09:53;;;;;;;0.00;0.00;;;16.80;99.90;;;;;;4960511;28;20531;-75
2022/06/19 00:12:21;;;;;;;0.00;0.00;;;16.70;99.90;;;;;;4960076;28;20444;-76
2022/06/19 00:14:49;;;;;;;0.00;0.00;;;16.70;99.90;;;;;;4961715;28;20475;-76
2022/06/19 00:17:17;;;;;;;0.00;0.00;;;16.80;99.90;;;;;;4961022;28;20483;-75
2022/06/19 00:19:47;;;;;;;0.00;0.00;;;16.70;99.90;;;;;;4961716;28;21171;-77
2022/06/19 00:22:15;;;;;;;0.00;0.00;;;16.70;99.90;;;;;;4961994;28;20472;-76
2022/06/19 00:24:43;;;;;;;0.00;0.00;;;16.60;99.90;;;;;;4963182;28;20554;-76
2022/06/19 00:27:11;;;;;;;0.00;0.00;;;16.60;99.90;;;;;;4962061;28;20502;-78
2022/06/19 00:29:39;;;;;;;0.00;0.00;;;16.50;99.90;;;;;;4962476;28;20467;-76
2022/06/19 00:32:07;;;;;;;0.00;0.00;;;16.40;99.90;;;;;;4961931;28;20467;-77
2022/06/19 00:34:36;;;;;;;0.00;0.00;;;16.30;99.90;;;;;;4962908;28;20444;-78
2022/06/19 00:37:06;;;;;;;0.00;0.00;;;16.30;99.90;;;;;;4960968;28;20551;-77
2022/06/19 00:39:39;;;;;;;0.00;0.00;;;16.20;99.90;;;;;;4963030;28;20554;-77
2022/06/19 00:42:09;;;;;;;0.00;0.00;;;16.20;99.90;;;;;;4969683;28;20431;-77
2022/06/19 00:44:37;;;;;;;0.00;0.00;;;16.10;99.90;;;;;;4966470;28;21062;-79
2022/06/19 00:47:13;;;;;;;0.00;0.00;;;16.10;99.90;;;;;;4964071;28;20499;-77
2022/06/19 00:49:49;;;;;;;0.00;0.00;;;16.00;99.90;;;;;;4962325;28;20458;-78
2022/06/19 00:52:21;;;;;;;0.00;0.00;;;16.00;99.90;;;;;;4961390;28;20439;-77
2022/06/19 00:54:53;;;;;;;0.00;0.00;;;16.00;99.90;;;;;;4960935;28;20510;-77
2022/06/19 00:57:23;;;;;;;0.00;0.00;;;16.00;99.90;;;;;;4960454;28;20470;-77
2022/06/19 00:59:55;;;;;;;0.00;0.00;;;16.00;99.90;;;;;;4960103;28;20478;-78
2022/06/19 01:02:24;;;;;;;0.00;0.00;;;16.00;99.90;;;;;;4960557;28;20460;-77
2022/06/19 01:04:55;;;;;;;0.00;0.00;;;16.10;99.90;;;;;;4960487;28;20584;-77
2022/06/19 01:07:26;;;;;;;0.00;0.00;;;16.10;99.90;;;;;;4960699;28;20460;-77
2022/06/19 01:09:54;;;;;;;0.00;0.00;;;16.20;99.90;;;;;;4960587;28;20431;-78
2022/06/19 01:12:24;;;;;;;0.00;0.00;;;16.10;99.90;;;;;;4959728;28;21033;-77
2022/06/19 01:15:05;;;;;;;0.00;0.00;;;16.10;99.90;;;;;;4960024;28;20436;-77
2022/06/19 01:17:35;;;;;;;0.00;0.00;;;16.10;99.90;;;;;;4960279;28;20490;-77
2022/06/19 01:20:05;;;;;;;0.00;0.00;;;16.10;99.90;;;;;;4960037;28;20554;-78
2022/06/19 01:22:41;;;;;;;0.00;0.00;;;16.00;99.90;;;;;;4960110;28;20451;-77
2022/06/19 01:25:12;;;;;;;0.00;0.00;;;15.90;99.90;;;;;;4959997;28;20546;-77
2022/06/19 01:30:31;;;;;;;0.00;0.00;;;15.80;99.90;;;;;;4961344;28;20515;-78
2022/06/19 01:33:01;;;;;;;0.00;0.00;;;15.70;99.90;;;;;;4961424;28;20440;-78
2022/06/19 01:35:33;;;;;;;0.00;0.00;;;15.60;99.90;;;;;;4961743;28;20483;-77
2022/06/19 01:38:09;;;;;;;0.00;0.00;;;15.60;99.90;;;;;;4961143;28;20939;-77
2022/06/19 01:40:41;;;;;;;0.00;0.00;;;15.60;99.90;;;;;;4959728;28;20483;-76
2022/06/19 01:43:09;;;;;;;0.00;0.00;;;15.60;99.90;;;;;;4959568;28;20539;-77
2022/06/19 01:45:40;;;;;;;0.00;0.00;;;15.60;99.90;;;;;;4959510;28;20447;-75
2022/06/19 01:48:09;;;;;;;0.00;0.00;;;15.50;99.90;;;;;;4959318;28;20535;-73
2022/06/19 01:50:37;;;;;;;0.00;0.00;;;15.50;99.90;;;;;;4961397;28;20443;-76
2022/06/19 01:53:09;;;;;;;0.00;0.00;;;15.50;99.90;;;;;;4960383;28;20539;-76
2022/06/19 01:55:39;;;;;;;0.00;0.00;;;15.50;99.90;;;;;;4960106;28;20450;-76
2022/06/19 01:58:08;;;;;;;0.00;0.00;;;15.50;99.90;;;;;;4961345;28;20444;-79
2022/06/19 02:00:37;;;;;;;0.00;0.00;;;15.50;99.90;;;;;;4964669;28;20485;-79
2022/06/19 02:03:13;;;;;;;0.00;0.00;;;15.50;99.90;;;;;;4980560;28;20525;-75
2022/06/19 02:05:41;;;;;;;0.00;0.00;;;15.60;99.90;;;;;;4983830;28;20471;-77
2022/06/19 02:08:11;;;;;;;0.00;0.00;;;15.60;99.90;;;;;;4985943;28;21015;-77
2022/06/19 02:10:40;;;;;;;0.00;0.00;;;15.70;99.90;;;;;;4986962;28;20518;-75
2022/06/19 02:13:10;;;;;;;0.00;0.00;;;15.70;99.90;;;;;;4988803;28;20447;-78
2022/06/19 02:15:39;;;;;;;0.00;0.00;;;15.70;99.90;;;;;;4992291;28;20427;-78
2022/06/19 02:23:36;;;;;;;0.00;0.00;;;15.70;99.90;;;;;;5043585;23;20478;-81
2022/06/19 02:26:09;;;;;;;0.00;0.00;;;15.70;99.90;;;;;;5004743;28;20505;-77
2022/06/19 02:28:40;;;;;;;0.00;0.00;;;15.60;99.90;;;;;;5009849;28;20808;-77
2022/06/19 02:31:08;;;;;;;0.00;0.00;;;15.60;99.90;;;;;;5017719;28;20462;-78
2022/06/19 02:33:41;;;;;;;0.00;0.00;;;15.50;99.90;;;;;;5013818;28;20434;-80
2022/06/19 02:36:32;;;;;;;0.00;0.00;;;15.50;99.90;;;;;;5013127;28;20928;-79
2022/06/19 02:39:13;;;;;;;0.00;0.00;;;15.40;99.90;;;;;;5003327;28;20438;-80
2022/06/19 02:41:48;;;;;;;0.00;0.00;;;15.40;99.90;;;;;;5003160;28;20422;-80
2022/06/19 02:44:16;;;;;;;0.00;0.00;;;15.40;99.90;;;;;;5002619;28;20440;-72
2022/06/19 02:46:44;;;;;;;0.00;0.00;;;15.40;99.90;;;;;;5000383;28;20976;-78
2022/06/19 02:49:12;;;;;;;0.00;0.00;;;15.40;99.90;;;;;;4999637;28;20474;-78
2022/06/19 02:51:46;;;;;;;0.00;0.00;;;15.40;99.90;;;;;;4999801;28;20451;-77
2022/06/19 02:54:14;;;;;;;0.00;0.00;;;15.40;99.90;;;;;;4999715;28;20835;-76
2022/06/19 02:56:43;;;;;;;0.00;0.00;;;15.40;99.90;;;;;;5000875;28;20466;-77
2022/06/19 02:59:11;;;;;;;0.00;0.00;;;15.40;99.90;;;;;;5000658;28;20474;-78
2022/06/19 03:01:39;;;;;;;0.00;0.00;;;15.40;99.90;;;;;;4999265;28;20490;-77
2022/06/19 03:04:15;;;;;;;0.00;0.00;;;15.40;99.90;;;;;;5001191;28;20446;-79
2022/06/19 03:06:43;;;;;;;0.00;0.00;;;15.50;99.90;;;;;;5001124;28;20523;-76
2022/06/19 03:09:11;;;;;;;0.00;0.00;;;15.50;99.90;;;;;;5000851;28;20452;-78
2022/06/19 03:11:39;;;;;;;0.00;0.00;;;15.50;99.90;;;;;;5000592;28;20837;-78
2022/06/19 03:14:08;;;;;;;0.00;0.00;;;15.60;99.90;;;;;;5003194;28;20476;-80
2022/06/19 03:16:36;;;;;;;0.00;0.00;;;15.50;99.90;;;;;;5002639;28;20472;-80
2022/06/19 03:19:04;;;;;;;0.00;0.00;;;15.60;99.90;;;;;;5002314;28;20458;-81
2022/06/19 03:21:32;;;;;;;0.00;0.00;;;15.50;99.90;;;;;;5001538;28;20477;-78
2022/06/19 03:24:00;;;;;;;0.00;0.00;;;15.50;99.90;;;;;;4999287;28;20478;-77
2022/06/19 03:26:28;;;;;;;0.00;0.00;;;15.50;99.90;;;;;;4998580;28;21076;-77
2022/06/19 03:28:56;;;;;;;0.00;0.00;;;15.60;99.90;;;;;;4998505;28;20853;-77
2022/06/19 03:31:27;;;;;;;0.00;0.00;;;15.60;99.90;;;;;;4998705;28;20433;-77
2022/06/19 03:33:55;;;;;;;0.00;0.00;;;15.60;99.90;;;;;;4999028;28;20449;-77
2022/06/19 03:36:24;;;;;;;0.00;0.00;;;15.60;99.90;;;;;;4998847;28;20863;-77
2022/06/19 03:38:52;;;;;;;0.00;0.00;;;15.60;99.90;;;;;;5003512;28;20441;-78
2022/06/19 03:41:20;;;;;;;0.00;0.00;;;15.70;99.90;;;;;;5010026;28;20988;-78
2022/06/19 03:43:47;;;;;;;0.00;0.00;;;15.70;99.90;;;;;;5003024;28;20937;-77
2022/06/19 03:46:17;;;;;;;0.00;0.00;;;15.70;99.90;;;;;;4999386;28;21088;-78
2022/06/19 03:48:48;;;;;;;0.00;0.00;;;15.70;99.90;;;;;;4999471;28;20870;-78
2022/06/19 03:51:16;;;;;;;0.00;0.00;;;15.60;99.90;;;;;;5000116;28;20430;-78
2022/06/19 03:53:45;;;;;;;0.00;0.00;;;15.60;99.90;;;;;;4999893;28;20454;-78
2022/06/19 03:56:17;;;;;;;0.00;0.00;;;15.60;99.90;;;;;;4999858;28;20474;-78
2022/06/19 03:58:48;;;;;;;0.00;0.00;;;15.70;99.90;;;;;;5001775;28;20815;-79
2022/06/19 04:01:17;;;;;;;0.00;0.00;;;15.70;99.90;;;;;;5003032;28;20488;-79
2022/06/19 04:03:48;;;;;;;0.00;0.00;;;15.80;99.90;;;;;;5002352;28;20441;-80
2022/06/19 04:06:18;;;;;;;0.00;0.00;;;15.80;99.90;;;;;;5001304;28;20462;-78
2022/06/19 04:08:46;;;;;;;0.00;0.00;;;15.80;99.90;;;;;;5001425;28;20444;-79
2022/06/19 04:11:16;;;;;;;0.00;0.00;;;15.80;99.90;;;;;;5001731;28;20822;-77
2022/06/19 04:13:44;;;;;;;0.00;0.00;;;15.80;99.90;;;;;;5004049;28;20445;-78
2022/06/19 04:16:20;;;;;;;0.00;0.00;;;15.80;99.90;;;;;;4999909;28;20573;-77
2022/06/19 04:18:50;;;;;;;0.00;0.00;;;15.90;99.90;;;;;;4999989;28;20532;-78
2022/06/19 04:21:25;;;;;;;0.00;0.00;;;15.90;99.90;;;;;;4999937;28;20504;-77
2022/06/19 04:23:55;;;;;;;0.00;0.00;;;15.90;99.90;;;;;;5000396;28;20490;-76
2022/06/19 04:26:25;;;;;;;0.00;0.00;;;16.00;99.90;;;;;;4999597;28;20480;-78
2022/06/19 04:28:53;;;;;;;0.00;0.00;;;16.00;99.90;;;;;;4999239;28;20464;-78
2022/06/19 04:31:21;;;;;;;0.00;0.00;;;15.90;99.90;;;;;;4999815;28;21197;-78
2022/06/19 04:33:51;;;;;;;0.00;0.00;;;15.90;99.90;;;;;;5000294;28;20591;-79
2022/06/19 04:36:20;;;;;;;0.00;0.00;;;16.00;99.90;;;;;;5000165;28;20472;-78
2022/06/19 04:38:50;;;;;;;0.00;0.00;;;16.00;99.90;;;;;;5000374;28;20699;-78
2022/06/19 04:41:22;;;;;;;0.00;0.00;;;16.00;99.90;;;;;;5000577;28;20570;-79
2022/06/19 04:43:51;;;;;;;0.00;0.00;;;16.00;99.90;;;;;;5001147;28;20442;-78
2022/06/19 04:46:20;;;;;;;0.00;0.00;;;16.00;99.90;;;;;;5001320;28;20500;-79
2022/06/19 04:48:50;;;;;;;0.00;0.00;;;15.90;99.90;;;;;;5001930;28;20975;-77
2022/06/19 04:51:18;;;;;;;0.00;0.00;;;15.80;99.90;;;;;;5001464;28;20456;-79
2022/06/19 04:53:46;;;;;;;0.00;0.00;;;15.80;99.90;;;;;;5000259;28;20745;-79
2022/06/19 04:56:16;;;;;;;0.00;0.00;;;15.90;99.90;;;;;;4999624;28;20461;-79
2022/06/19 04:58:44;;;;;;;0.00;0.00;;;15.90;99.90;;;;;;5001006;28;20444;-78
2022/06/19 05:01:18;;;;;;;0.00;0.00;;;15.90;99.90;;;;;;4999840;28;20486;-78
2022/06/19 05:03:46;;;;;;;0.00;0.00;;;16.00;99.90;;;;;;5000631;28;20821;-79
2022/06/19 05:06:15;;;;;;;0.00;0.00;;;16.10;99.90;;;;;;5002634;28;20488;-78
2022/06/19 05:08:43;;;;;;;0.00;0.00;;;16.20;99.90;;;;;;5004342;28;20442;-80
2022/06/19 05:11:12;;;;;;;0.00;0.00;;;16.20;99.90;;;;;;5000310;28;20489;-75
2022/06/19 05:13:41;;;;;;;0.00;0.00;;;16.40;99.90;;;;;;4998857;28;20484;-77
2022/06/19 05:16:11;;;;;;;0.00;0.00;;;16.50;99.90;;;;;;5001362;28;20482;-77
2022/06/19 05:18:39;;;;;;;0.00;0.00;;;16.70;99.90;;;;;;5002225;28;20525;-78
2022/06/19 05:21:07;;;;;;;0.00;0.00;;;16.70;99.90;;;;;;5003171;28;21061;-78
2022/06/19 05:23:39;;;;;;;0.00;0.00;;;16.90;99.90;;;;;;5010234;28;20531;-79
2022/06/19 05:26:08;;;;;;;0.00;0.00;;;16.90;99.90;;;;;;5005190;28;20851;-78
2022/06/19 05:28:37;;;;;;;0.00;0.00;;;16.80;99.90;;;;;;5002187;28;20770;-77
2022/06/19 05:31:05;;;;;;;0.00;0.00;;;16.80;99.90;;;;;;4998144;28;20722;-77
2022/06/19 05:33:34;;;;;;;0.00;0.00;;;16.80;99.90;;;;;;4999213;28;20471;-79
2022/06/19 05:36:02;;;;;;;0.00;0.00;;;16.80;99.90;;;;;;4996858;28;21125;-79
2022/06/19 05:38:30;;;;;;;0.00;0.00;;;16.70;99.90;;;;;;5002707;28;20504;-78
2022/06/19 05:41:01;;;;;;;0.00;0.00;;;16.70;99.90;;;;;;5003210;28;20541;-78
2022/06/19 05:43:31;;;;;;;0.00;0.00;;;16.70;99.90;;;;;;5003862;28;20529;-77
2022/06/19 05:46:01;;;;;;;0.00;0.00;;;16.70;99.90;;;;;;5003535;28;20796;-77
2022/06/19 05:48:31;;;;;;;0.00;0.00;;;16.80;99.90;;;;;;5003653;28;20431;-78
2022/06/19 05:51:01;;;;;;;0.00;0.00;;;17.00;99.90;;;;;;5002227;28;20982;-76
2022/06/19 05:53:33;;;;;;;0.00;0.00;;;17.20;99.90;;;;;;5002135;28;20446;-78
2022/06/19 05:56:03;;;;;;;0.00;0.00;;;17.30;99.90;;;;;;4999264;28;20482;-77
2022/06/19 05:58:31;;;;;;;0.00;0.00;;;17.40;99.90;;;;;;5001501;28;20524;-77
2022/06/19 06:01:00;;;;;;;0.00;0.00;;;17.40;99.90;;;;;;4999876;28;20523;-75
2022/06/19 06:03:29;;;;;;;0.00;0.00;;;17.40;99.90;;;;;;5001129;28;20467;-76
2022/06/19 06:06:00;;;;;;;0.00;0.00;;;17.30;99.90;;;;;;4999966;28;20462;-75
2022/06/19 06:08:30;;;;;;;0.00;0.00;;;17.30;99.90;;;;;;4998371;28;20441;-74
2022/06/19 06:10:58;;;;;;;0.00;0.00;;;17.30;99.90;;;;;;5000225;28;20934;-74
2022/06/19 06:13:29;;;;;;;0.00;0.00;;;17.20;99.90;;;;;;4998188;28;20952;-74
2022/06/19 06:16:00;;;;;;;0.00;0.00;;;17.10;99.90;;;;;;4999868;28;20480;-76
2022/06/19 06:18:32;;;;;;;0.00;0.00;;;17.10;99.90;;;;;;4998690;28;20833;-74
2022/06/19 06:21:03;;;;;;;0.00;0.00;;;17.20;99.90;;;;;;4999649;28;20441;-74
2022/06/19 06:23:32;;;;;;;0.00;0.00;;;17.20;99.90;;;;;;4998287;28;20444;-74
2022/06/19 06:26:02;;;;;;;0.00;0.00;;;17.20;99.90;;;;;;4999162;28;20466;-73
2022/06/19 06:28:38;;;;;;;0.00;0.00;;;17.20;99.90;;;;;;4998205;28;20435;-74
2022/06/19 06:31:07;;;;;;;0.00;0.00;;;17.20;99.90;;;;;;4997962;28;20478;-75
2022/06/19 06:33:36;;;;;;;0.00;0.00;;;17.30;99.90;;;;;;4997339;28;20950;-74
2022/06/19 06:36:04;;;;;;;0.00;0.00;;;17.40;99.90;;;;;;4997290;28;20463;-72
2022/06/19 06:38:35;;;;;;;0.00;0.00;;;17.50;99.90;;;;;;4998185;28;20450;-74
2022/06/19 06:41:06;;;;;;;0.00;0.00;;;17.60;99.90;;;;;;4996915;28;20457;-74
2022/06/19 06:43:38;;;;;;;0.00;0.00;;;17.80;99.90;;;;;;4997815;28;20488;-74
2022/06/19 06:46:07;;;;;;;0.00;0.00;;;17.90;99.90;;;;;;4997001;28;20480;-74
2022/06/19 06:48:51;;;;;;;0.00;0.00;;;18.00;99.90;;;;;;4995698;28;20439;-74
2022/06/19 06:51:22;;;;;;;0.00;0.00;;;17.90;99.90;;;;;;4997567;28;20450;-74
2022/06/19 06:53:50;;;;;;;0.00;0.00;;;17.80;99.90;;;;;;4997684;28;20518;-74
2022/06/19 06:56:23;;;;;;;0.00;0.00;;;17.80;99.90;;;;;;4999142;28;20493;-74
2022/06/19 06:58:55;;;;;;;0.00;0.00;;;17.90;99.90;;;;;;4999522;28;20449;-74
2022/06/19 07:01:32;;;;;;;0.00;0.00;;;18.10;99.90;;;;;;4997408;28;20431;-73
2022/06/19 07:04:03;;;;;;;0.00;0.00;;;18.20;99.90;;;;;;4998178;28;20758;-73
2022/06/19 07:06:33;;;;;;;0.00;0.00;;;18.40;99.90;;;;;;4997203;28;20571;-73
2022/06/19 07:09:07;;;;;;;0.00;0.00;;;18.40;99.90;;;;;;4996546;28;20619;-74
2022/06/19 07:11:39;;;;;;;0.00;0.00;;;18.50;99.90;;;;;;4999271;28;20527;-74
2022/06/19 07:14:15;;;;;;;0.00;0.00;;;18.70;99.90;;;;;;4995699;28;20546;-72
2022/06/19 07:16:43;;;;;;;0.00;0.00;;;18.80;99.90;;;;;;4997757;28;20501;-74
2022/06/19 07:19:12;;;;;;;0.00;0.00;;;18.90;99.90;;;;;;5000230;28;20811;-75
2022/06/19 07:21:40;;;;;;;0.00;0.00;;;19.00;99.90;;;;;;4999616;28;20815;-73
2022/06/19 07:24:08;;;;;;;0.00;0.00;;;19.20;99.90;;;;;;4999859;28;20452;-74
2022/06/19 07:26:36;;;;;;;0.00;0.00;;;19.30;99.90;;;;;;4999626;28;20834;-74
2022/06/19 07:29:05;;;;;;;0.00;0.00;;;19.40;99.90;;;;;;5001444;28;20529;-74
2022/06/19 07:31:36;;;;;;;0.00;0.00;;;19.50;99.90;;;;;;4999011;28;20890;-75
2022/06/19 07:34:05;;;;;;;0.00;0.00;;;19.70;99.90;;;;;;4979966;28;20458;-76
2022/06/19 07:36:33;;;;;;;0.00;0.00;;;19.90;99.90;;;;;;4979768;28;20463;-74
2022/06/19 07:39:01;;;;;;;0.00;0.00;;;20.10;99.90;;;;;;4979358;28;20467;-74
2022/06/19 07:41:29;;;;;;;0.00;0.00;;;20.20;99.90;;;;;;4979351;28;20442;-74
2022/06/19 07:43:57;;;;;;;0.00;0.00;;;20.30;99.90;;;;;;4979346;28;20482;-73
2022/06/19 07:46:25;;;;;;;0.00;0.00;;;20.30;99.90;;;;;;4979212;28;21012;-72
2022/06/19 07:51:40;;;;;;;0.00;0.00;;;20.50;99.90;;;;;;4978991;28;20526;-72
2022/06/19 07:54:08;;;;;;;0.00;0.00;;;20.60;99.90;;;;;;4978751;28;20454;-73
2022/06/19 07:56:36;;;;;;;0.00;0.00;;;20.80;99.90;;;;;;4979684;28;20934;-77
2022/06/19 07:59:04;;;;;;;0.00;0.00;;;20.90;99.90;;;;;;4980813;28;20566;-77
2022/06/19 08:01:32;;;;;;;0.00;0.00;;;21.10;99.90;;;;;;4981267;28;20522;-77
2022/06/19 08:04:21;;;;;;;0.00;0.00;;;21.20;99.90;;;;;;4979701;28;20857;-77
2022/06/19 08:06:49;;;;;;;0.00;0.00;;;21.20;99.90;;;;;;4979518;28;20912;-77
2022/06/19 08:09:17;;;;;;;0.00;0.00;;;21.20;99.90;;;;;;4978825;28;20454;-77
2022/06/19 08:11:45;;;;;;;0.00;0.00;;;21.20;99.90;;;;;;4979035;28;21033;-77
2022/06/19 08:14:13;;;;;;;0.00;0.00;;;21.20;99.90;;;;;;4983007;28;20439;-78
2022/06/19 08:16:41;;;;;;;0.00;0.00;;;21.30;99.90;;;;;;4986623;28;20554;-77
2022/06/19 08:19:10;;;;;;;0.00;0.00;;;21.40;99.90;;;;;;4984375;28;20474;-78
2022/06/19 08:21:39;;;;;;;0.00;0.00;;;21.50;99.90;;;;;;4983584;28;20543;-79
2022/06/19 08:24:07;;;;;;;0.00;0.00;;;21.60;99.90;;;;;;4983596;28;20490;-78
2022/06/19 08:26:35;;;;;;;0.00;0.00;;;21.60;99.90;;;;;;4984758;28;20456;-76
2022/06/19 08:29:03;;;;;;;0.00;0.00;;;21.60;99.90;;;;;;4980601;28;20469;-74
2022/06/19 08:31:34;;;;;;;0.00;0.00;;;21.50;99.90;;;;;;4962650;28;20465;-76
2022/06/19 08:34:02;;;;;;;0.00;0.00;;;21.40;99.90;;;;;;4981761;28;20501;-76
2022/06/19 08:36:34;;;;;;;0.00;0.00;;;21.30;99.90;;;;;;4993867;28;20973;-76
2022/06/19 08:39:11;;;;;;;0.00;0.00;;;21.20;99.90;;;;;;4997911;28;20544;-75
2022/06/19 08:42:05;;;;;;;0.00;0.00;;;21.20;99.90;;;;;;4995437;28;20459;-75
2022/06/19 08:45:21;;;;;;;0.00;0.00;;;21.20;99.90;;;;;;4997502;28;20478;-76
2022/06/19 08:48:08;;;;;;;0.00;0.00;;;21.20;99.90;;;;;;4997038;28;20458;-76
2022/06/19 08:50:43;;;;;;;0.00;0.00;;;21.20;99.90;;;;;;4994723;28;20438;-75
2022/06/19 08:53:36;;;;;;;0.00;0.00;;;21.10;99.90;;;;;;4997144;28;20541;-76
2022/06/19 08:56:12;;;;;;;0.00;0.00;;;21.10;99.90;;;;;;4996017;28;20542;-75
2022/06/19 08:58:50;;;;;;;0.00;0.00;;;21.40;99.90;;;;;;4980482;28;20802;-76
2022/06/19 09:01:26;;;;;;;0.00;0.00;;;21.60;99.90;;;;;;4981508;28;20517;-76
2022/06/19 09:07:04;;;;;;;0.00;0.00;;;21.70;99.90;;;;;;4979763;28;20976;-75
2022/06/19 09:09:49;;;;;;;0.00;0.00;;;21.60;99.90;;;;;;4988860;28;20447;-75
2022/06/19 09:12:37;;;;;;;0.00;0.00;;;21.60;99.90;;;;;;4981461;28;20443;-75
2022/06/19 09:15:12;;;;;;;0.00;0.00;;;21.50;99.90;;;;;;4987815;28;20557;-75
2022/06/19 09:17:54;;;;;;;0.00;0.00;;;21.50;99.90;;;;;;4989542;28;20570;-77
2022/06/19 09:20:32;;;;;;;0.00;0.00;;;21.40;99.90;;;;;;4992973;28;20459;-77
2022/06/19 09:23:14;;;;;;;0.00;0.00;;;21.30;99.90;;;;;;4983765;28;20452;-76
2022/06/19 09:25:49;;;;;;;0.00;0.00;;;21.20;99.90;;;;;;4986529;28;20456;-76
2022/06/19 09:28:26;;;;;;;0.00;0.00;;;21.10;99.90;;;;;;4985631;28;20534;-76
2022/06/19 09:31:05;;;;;;;0.00;0.00;;;21.10;99.90;;;;;;4985832;28;20550;-76
2022/06/19 09:33:41;;;;;;;0.00;0.00;;;21.20;99.90;;;;;;4985779;28;20530;-76
2022/06/19 09:36:17;;;;;;;0.00;0.00;;;21.30;99.90;;;;;;4982588;28;20462;-75
2022/06/19 09:38:51;;;;;;;0.00;0.00;;;21.40;99.90;;;;;;4982873;28;20446;-77
2022/06/19 09:41:23;;;;;;;0.00;0.00;;;21.40;99.90;;;;;;4982281;28;20442;-76
2022/06/19 09:44:00;;;;;;;0.00;0.00;;;21.50;99.90;;;;;;4982464;28;20474;-73
2022/06/19 09:46:34;;;;;;;0.00;0.00;;;21.40;99.90;;;;;;4986822;28;20486;-76
2022/06/19 09:49:11;;;;;;;0.00;0.00;;;21.30;99.90;;;;;;4994666;28;20811;-76
2022/06/19 09:51:44;;;;;;;0.00;0.00;;;21.30;99.90;;;;;;4981764;28;20443;-76
2022/06/19 09:54:24;;;;;;;0.00;0.00;;;21.20;99.90;;;;;;4985169;28;20782;-76
2022/06/19 09:56:57;;;;;;;0.00;0.00;;;21.20;99.90;;;;;;4990516;28;20765;-76
2022/06/19 09:59:34;;;;;;;0.00;0.00;;;21.20;99.90;;;;;;5001092;28;20448;-74
2022/06/19 10:02:08;;;;;;;0.00;0.00;;;21.00;99.90;;;;;;4983077;28;20760;-78
2022/06/19 10:04:40;;;;;;;0.00;0.00;;;20.70;99.90;;;;;;4981849;28;20881;-77
2022/06/19 10:07:12;;;;;;;0.00;0.00;;;20.40;99.90;;;;;;4987503;28;20858;-74
2022/06/19 10:09:46;;;;;;;0.00;0.00;;;20.20;99.90;;;;;;4990232;28;20467;-73
2022/06/19 10:12:23;;;;;;;0.00;0.00;;;20.20;99.90;;;;;;4981283;28;20436;-74
2022/06/19 10:14:53;;;;;;;0.00;0.00;;;20.20;99.90;;;;;;4991549;28;21032;-76
2022/06/19 10:17:26;;;;;;;0.00;0.00;;;20.20;99.90;;;;;;4989294;28;20942;-74
2022/06/19 10:20:02;;;;;;;0.00;0.00;;;20.10;99.90;;;;;;4986448;28;20479;-74
2022/06/19 10:22:44;;;;;;;0.00;0.00;;;20.00;99.90;;;;;;4990012;28;20442;-73
2022/06/19 10:25:35;;;;;;;0.00;0.00;;;19.80;99.90;;;;;;4998281;28;20569;-73
2022/06/19 10:28:20;;;;;;;0.00;0.00;;;19.70;99.90;;;;;;5000642;28;20449;-73
2022/06/19 10:30:58;;;;;;;0.00;0.00;;;19.60;99.90;;;;;;5001188;28;20448;-75
2022/06/19 10:33:41;;;;;;;0.00;0.00;;;19.30;99.90;;;;;;5000762;28;20440;-75
2022/06/19 10:36:15;;;;;;;0.00;0.00;;;19.20;99.90;;;;;;5000554;28;20476;-75
2022/06/19 10:39:03;;;;;;;0.00;0.00;;;19.20;99.90;;;;;;5000556;28;20445;-74
2022/06/19 10:44:30;;;;;;;0.00;0.00;;;19.20;99.90;;;;;;4981866;28;20484;-74
2022/06/19 10:47:09;;;;;;;0.00;0.00;;;19.20;99.90;;;;;;4991921;28;21031;-75
2022/06/19 10:49:49;;;;;;;0.00;0.00;;;19.10;99.90;;;;;;4994990;28;21131;-75
2022/06/19 10:52:24;;;;;;;0.00;0.00;;;19.20;99.90;;;;;;4980758;28;21114;-75
2022/06/19 10:55:13;;;;;;;0.00;0.00;;;19.20;99.90;;;;;;4980889;28;21094;-76
2022/06/19 10:57:58;;;;;;;0.00;0.00;;;19.20;99.90;;;;;;4980878;28;20478;-76
2022/06/19 11:00:26;;;;;;;0.00;0.00;;;19.20;99.90;;;;;;4992967;28;20446;-76
2022/06/19 11:05:53;;;;;;;0.00;0.00;;;19.20;99.90;;;;;;4987239;28;20492;-73
2022/06/19 11:08:24;;;;;;;0.00;0.00;;;19.10;99.90;;;;;;4980510;28;20978;-73
2022/06/19 11:10:55;;;;;;;0.00;0.00;;;19.10;99.90;;;;;;4980182;28;20423;-73
2022/06/19 11:13:24;;;;;;;0.00;0.00;;;19.10;99.90;;;;;;4980289;28;20472;-73
2022/06/19 11:16:02;;;;;;;0.00;0.00;;;19.10;99.90;;;;;;4988195;28;20461;-73
2022/06/19 11:18:46;;;;;;;0.00;0.00;;;19.20;99.90;;;;;;4979695;28;20615;-73
2022/06/19 11:21:17;;;;;;;0.00;0.00;;;19.20;99.90;;;;;;4983699;28;21019;-73
2022/06/19 11:23:53;;;;;;;0.00;0.00;;;19.20;99.90;;;;;;4993836;28;20460;-73
2022/06/19 11:26:23;;;;;;;0.00;0.00;;;19.20;99.90;;;;;;4992756;28;20497;-74
2022/06/19 11:28:55;;;;;;;0.00;0.00;;;19.20;99.90;;;;;;4992165;28;20460;-74
2022/06/19 11:31:27;;;;;;;0.00;0.00;;;19.30;99.90;;;;;;4994851;28;21117;-74
2022/06/19 11:37:10;;;;;;;0.00;0.00;;;19.40;99.90;;;;;;4987971;28;20465;-73
2022/06/19 11:39:41;;;;;;;0.00;0.00;;;19.40;99.90;;;;;;4983684;28;20447;-74
2022/06/19 11:42:37;;;;;;;0.00;0.00;;;19.40;99.90;;;;;;4980770;28;20448;-75
2022/06/19 11:45:20;;;;;;;0.00;0.00;;;19.30;99.90;;;;;;4918142;28;20551;-74
2022/06/19 11:48:00;;;;;;;0.00;0.00;;;19.30;99.90;;;;;;4986295;28;20549;-73
2022/06/19 11:50:40;;;;;;;0.00;0.00;;;19.30;99.90;;;;;;4988331;28;20524;-82
2022/06/19 11:53:16;;;;;;;0.00;0.00;;;19.30;99.90;;;;;;4991725;28;20442;-80
2022/06/19 11:55:46;;;;;;;0.00;0.00;;;19.30;99.90;;;;;;4990500;28;20461;-82
2022/06/19 11:58:21;;;;;;;0.00;0.00;;;19.30;99.90;;;;;;4991152;28;20539;-83
2022/06/19 12:01:03;;;;;;;0.00;0.00;;;19.20;99.90;;;;;;5003342;28;20465;-82
2022/06/19 12:03:40;;;;;;;0.00;0.00;;;19.30;99.90;;;;;;5005886;28;20521;-83
2022/06/19 12:06:12;;;;;;;0.00;0.00;;;19.30;99.90;;;;;;4998704;28;20494;-84
2022/06/19 12:08:49;;;;;;;0.00;0.00;;;19.30;99.90;;;;;;4993363;28;20453;-78
2022/06/19 12:11:37;;;;;;;0.00;0.00;;;19.20;99.90;;;;;;4989853;28;20462;-79
2022/06/19 12:14:09;;;;;;;0.00;0.00;;;19.00;99.90;;;;;;5000179;28;20451;-80
2022/06/19 12:16:37;;;;;;;0.00;0.00;;;18.80;99.90;;;;;;4997608;28;20989;-79
2022/06/19 12:19:17;;;;;;;0.00;0.00;;;18.50;99.90;;;;;;4998936;28;20525;-76
2022/06/19 12:21:54;;;;;;;0.00;0.00;;;18.40;99.90;;;;;;5005252;28;20628;-82
2022/06/19 12:24:31;;;;;;;0.00;0.00;;;18.30;99.90;;;;;;5007420;28;20484;-82
2022/06/19 12:27:01;;;;;;;0.00;0.00;;;18.00;99.90;;;;;;5006218;28;20977;-83
2022/06/19 12:29:34;;;;;;;0.00;0.00;;;17.90;99.90;;;;;;5010363;28;20444;-83
2022/06/19 12:32:07;;;;;;;0.00;0.00;;;17.60;99.90;;;;;;5009488;28;20494;-80
2022/06/19 12:34:38;;;;;;;0.00;0.00;;;17.40;99.90;;;;;;5010028;28;20761;-82
2022/06/19 12:37:15;;;;;;;0.00;0.00;;;17.30;99.90;;;;;;5001292;28;20537;-79
2022/06/19 12:39:45;;;;;;;0.00;0.00;;;17.20;99.90;;;;;;5005858;28;20816;-80
2022/06/19 12:42:23;;;;;;;0.00;0.00;;;17.20;99.90;;;;;;5006373;28;21046;-78
2022/06/19 12:45:16;;;;;;;0.00;0.00;;;17.10;99.90;;;;;;5002912;28;20490;-77
2022/06/19 12:47:52;;;;;;;0.00;0.00;;;17.00;99.90;;;;;;4997265;28;20538;-75
2022/06/19 12:50:43;;;;;;;0.00;0.00;;;16.90;99.90;;;;;;4989509;28;20451;-75
2022/06/19 12:53:38;;;;;;;0.00;0.00;;;16.80;99.90;;;;;;4978335;28;20443;-75
2022/06/19 12:56:14;;;;;;;0.00;0.00;;;16.70;99.90;;;;;;4993765;28;20480;-74
2022/06/19 12:59:10;;;;;;;0.00;0.00;;;16.60;99.90;;;;;;4998045;28;20442;-74
2022/06/19 13:01:47;;;;;;;0.00;0.00;;;16.60;99.90;;;;;;4995244;28;20719;-74
2022/06/19 13:04:27;;;;;;;0.00;0.00;;;16.60;99.90;;;;;;4997731;28;20461;-74
2022/06/19 13:07:19;;;;;;;0.00;0.00;;;16.60;99.90;;;;;;4996459;28;20479;-75
2022/06/19 13:10:02;;;;;;;0.00;0.00;;;16.70;99.90;;;;;;4997610;28;20987;-75
2022/06/19 13:12:45;;;;;;;0.00;0.00;;;16.70;99.90;;;;;;4991007;28;20479;-74
2022/06/19 13:15:28;;;;;;;0.00;0.00;;;16.70;99.90;;;;;;4978314;28;20954;-73
2022/06/19 13:18:05;;;;;;;0.00;0.00;;;16.80;99.90;;;;;;4977257;28;20833;-73
2022/06/19 13:20:41;;;;;;;0.00;0.00;;;16.90;99.90;;;;;;4981285;28;20457;-73
2022/06/19 13:23:18;;;;;;;0.00;0.00;;;16.90;99.90;;;;;;4983286;28;20460;-73
2022/06/19 13:26:01;;;;;;;0.00;0.00;;;16.90;99.90;;;;;;4996717;28;20489;-75
2022/06/19 13:28:39;;;;;;;0.00;0.00;;;16.90;99.90;;;;;;4977576;28;20804;-76
2022/06/19 13:31:12;;;;;;;0.00;0.00;;;16.80;99.90;;;;;;4977744;28;20547;-75
2022/06/19 13:33:59;;;;;;;0.00;0.00;;;16.80;99.90;;;;;;4989232;28;20478;-76
2022/06/19 13:36:37;;;;;;;0.00;0.00;;;16.90;99.90;;;;;;4996233;28;20534;-74
2022/06/19 13:39:18;;;;;;;0.00;0.00;;;16.90;99.90;;;;;;4996569;28;20439;-75
2022/06/19 13:41:58;;;;;;;0.00;0.00;;;17.00;99.90;;;;;;4998017;28;20453;-74